sensor_id;sensor_type;location;lat;lon;timestamp;pressure;altitude;pressure_sealevel;temperature;humidity
16451;BME280;12243;42.708;23.310;2023-02-17T00:01:19;95947.63;;;2.39;85.93
16451;BME280;12243;42.708;23.310;2023-02-17T00:03:48;95959.47;;;2.44;85.47
16451;BME280;12243;42.708;23.310;2023-02-17T00:06:19;95960.38;;;2.43;85.29
16451;BME280;12243;42.708;23.310;2023-02-17T00:08:47;95951.00;;;2.42;85.36
16451;BME280;12243;42.708;23.310;2023-02-17T00:11:14;95944.41;;;2.34;85.76
16451;BME280;12243;42.708;23.310;2023-02-17T00:13:41;95946.81;;;2.39;86.10
16451;BME280;12243;42.708;23.310;2023-02-17T00:16:10;95948.47;;;2.40;85.83
16451;BME280;12243;42.708;23.310;2023-02-17T00:18:37;95945.88;;;2.42;85.58
16451;BME280;12243;42.708;23.310;2023-02-17T00:21:14;95947.41;;;2.46;84.91
16451;BME280;12243;42.708;23.310;2023-02-17T00:23:42;95951.09;;;2.38;84.72
16451;BME280;12243;42.708;23.310;2023-02-17T00:26:09;95941.03;;;2.32;85.08
16451;BME280;12243;42.708;23.310;2023-02-17T00:28:37;95929.31;;;2.25;85.71
16451;BME280;12243;42.708;23.310;2023-02-17T00:31:05;95923.50;;;2.20;85.74
16451;BME280;12243;42.708;23.310;2023-02-17T00:33:32;95930.34;;;2.20;85.42
16451;BME280;12243;42.708;23.310;2023-02-17T00:36:02;95926.13;;;2.19;85.66
16451;BME280;12243;42.708;23.310;2023-02-17T00:38:31;95927.13;;;2.14;85.87
16451;BME280;12243;42.708;23.310;2023-02-17T00:40:58;95929.31;;;2.25;85.83
16451;BME280;12243;42.708;23.310;2023-02-17T00:43:25;95935.19;;;2.29;85.15
16451;BME280;12243;42.708;23.310;2023-02-17T00:45:52;95927.44;;;2.30;85.28
16451;BME280;12243;42.708;23.310;2023-02-17T00:48:20;95937.47;;;2.36;84.75
16451;BME280;12243;42.708;23.310;2023-02-17T00:50:47;95935.78;;;2.35;84.61
16451;BME280;12243;42.708;23.310;2023-02-17T00:53:14;95939.78;;;2.44;84.04
16451;BME280;12243;42.708;23.310;2023-02-17T00:55:43;95935.38;;;2.48;83.88
16451;BME280;12243;42.708;23.310;2023-02-17T00:58:09;95928.38;;;2.51;82.33
16451;BME280;12243;42.708;23.310;2023-02-17T01:00:37;95923.38;;;2.47;82.24
16451;BME280;12243;42.708;23.310;2023-02-17T01:03:04;95918.59;;;2.37;81.99
16451;BME280;12243;42.708;23.310;2023-02-17T01:05:31;95920.59;;;2.29;81.91
16451;BME280;12243;42.708;23.310;2023-02-17T01:07:58;95919.16;;;2.46;80.88
16451;BME280;12243;42.708;23.310;2023-02-17T01:10:26;95914.94;;;2.43;80.73
16451;BME280;12243;42.708;23.310;2023-02-17T01:12:56;95912.09;;;2.51;80.34
16451;BME280;12243;42.708;23.310;2023-02-17T01:15:22;95911.09;;;2.55;79.68
16451;BME280;12243;42.708;23.310;2023-02-17T01:17:49;95907.63;;;2.56;79.85
16451;BME280;12243;42.708;23.310;2023-02-17T01:20:17;95908.06;;;2.44;79.82
16451;BME280;12243;42.708;23.310;2023-02-17T01:22:43;95914.19;;;2.41;80.59
16451;BME280;12243;42.708;23.310;2023-02-17T01:25:10;95916.78;;;2.39;80.90
16451;BME280;12243;42.708;23.310;2023-02-17T01:27:37;95912.00;;;2.30;81.14
16451;BME280;12243;42.708;23.310;2023-02-17T01:30:06;95910.41;;;2.26;81.36
16451;BME280;12243;42.708;23.310;2023-02-17T01:32:35;95904.50;;;2.24;82.00
16451;BME280;12243;42.708;23.310;2023-02-17T01:35:02;95904.56;;;2.23;82.34
16451;BME280;12243;42.708;23.310;2023-02-17T01:37:33;95901.97;;;2.23;82.32
16451;BME280;12243;42.708;23.310;2023-02-17T01:40:00;95911.78;;;2.13;82.46
16451;BME280;12243;42.708;23.310;2023-02-17T01:42:27;95904.19;;;2.10;82.21
16451;BME280;12243;42.708;23.310;2023-02-17T01:48:08;95909.22;;;2.13;82.68
16451;BME280;12243;42.708;23.310;2023-02-17T01:50:41;95912.00;;;2.07;83.19
16451;BME280;12243;42.708;23.310;2023-02-17T01:53:10;95905.22;;;2.04;83.74
16451;BME280;12243;42.708;23.310;2023-02-17T01:55:40;95902.03;;;1.98;83.63
16451;BME280;12243;42.708;23.310;2023-02-17T01:58:11;95902.94;;;1.97;83.85
16451;BME280;12243;42.708;23.310;2023-02-17T02:00:39;95907.97;;;2.00;83.22
16451;BME280;12243;42.708;23.310;2023-02-17T02:03:11;95904.59;;;1.98;82.93
16451;BME280;12243;42.708;23.310;2023-02-17T02:05:40;95908.72;;;2.02;82.42
16451;BME280;12243;42.708;23.310;2023-02-17T02:08:08;95902.31;;;1.90;81.95
16451;BME280;12243;42.708;23.310;2023-02-17T02:10:35;95895.66;;;1.59;82.46
16451;BME280;12243;42.708;23.310;2023-02-17T02:13:04;95889.22;;;1.48;83.94
16451;BME280;12243;42.708;23.310;2023-02-17T02:15:36;95892.91;;;1.40;84.69
16451;BME280;12243;42.708;23.310;2023-02-17T02:18:24;95889.53;;;1.38;84.63
16451;BME280;12243;42.708;23.310;2023-02-17T02:21:07;95887.28;;;1.29;85.10
16451;BME280;12243;42.708;23.310;2023-02-17T02:23:54;95900.31;;;1.23;85.55
16451;BME280;12243;42.708;23.310;2023-02-17T02:30:04;95895.94;;;1.25;85.79
16451;BME280;12243;42.708;23.310;2023-02-17T02:32:49;95884.19;;;1.19;86.63
16451;BME280;12243;42.708;23.310;2023-02-17T02:35:24;95891.16;;;1.14;87.27
16451;BME280;12243;42.708;23.310;2023-02-17T02:37:59;95892.72;;;1.20;86.88
16451;BME280;12243;42.708;23.310;2023-02-17T02:40:32;95891.72;;;1.24;87.66
16451;BME280;12243;42.708;23.310;2023-02-17T02:43:01;95897.59;;;1.28;86.54
16451;BME280;12243;42.708;23.310;2023-02-17T02:45:29;95904.63;;;1.21;86.67
16451;BME280;12243;42.708;23.310;2023-02-17T02:47:58;95896.84;;;1.24;87.11
16451;BME280;12243;42.708;23.310;2023-02-17T02:50:35;95890.53;;;1.34;86.67
16451;BME280;12243;42.708;23.310;2023-02-17T02:53:26;95901.88;;;1.27;86.73
16451;BME280;12243;42.708;23.310;2023-02-17T02:56:04;95905.56;;;1.18;87.96
16451;BME280;12243;42.708;23.310;2023-02-17T02:58:42;95893.69;;;1.16;88.11
16451;BME280;12243;42.708;23.310;2023-02-17T03:01:18;95898.63;;;1.22;88.84
16451;BME280;12243;42.708;23.310;2023-02-17T03:03:59;95902.06;;;1.21;88.80
16451;BME280;12243;42.708;23.310;2023-02-17T03:06:36;95897.03;;;1.18;89.24
16451;BME280;12243;42.708;23.310;2023-02-17T03:09:09;95905.34;;;1.26;89.29
16451;BME280;12243;42.708;23.310;2023-02-17T03:11:37;95899.59;;;1.45;88.22
16451;BME280;12243;42.708;23.310;2023-02-17T03:14:06;95898.97;;;1.38;88.24
16451;BME280;12243;42.708;23.310;2023-02-17T03:16:35;95892.78;;;1.43;88.01
16451;BME280;12243;42.708;23.310;2023-02-17T03:19:05;95905.53;;;1.47;87.10
16451;BME280;12243;42.708;23.310;2023-02-17T03:21:35;95901.34;;;1.42;88.12
16451;BME280;12243;42.708;23.310;2023-02-17T03:24:05;95900.69;;;1.37;88.56
16451;BME280;12243;42.708;23.310;2023-02-17T03:26:32;95903.06;;;1.43;88.63
16451;BME280;12243;42.708;23.310;2023-02-17T03:28:59;95902.00;;;1.49;88.39
16451;BME280;12243;42.708;23.310;2023-02-17T03:31:27;95899.69;;;1.41;87.72
16451;BME280;12243;42.708;23.310;2023-02-17T03:33:55;95897.22;;;1.38;88.54
16451;BME280;12243;42.708;23.310;2023-02-17T03:36:23;95894.72;;;1.37;88.28
16451;BME280;12243;42.708;23.310;2023-02-17T03:38:50;95897.22;;;1.38;87.98
16451;BME280;12243;42.708;23.310;2023-02-17T03:41:17;95899.41;;;1.51;87.93
16451;BME280;12243;42.708;23.310;2023-02-17T03:43:44;95901.06;;;1.52;88.07
16451;BME280;12243;42.708;23.310;2023-02-17T03:46:11;95897.59;;;1.53;87.62
16451;BME280;12243;42.708;23.310;2023-02-17T03:48:38;95890.91;;;1.49;87.89
16451;BME280;12243;42.708;23.310;2023-02-17T03:51:10;95894.38;;;1.48;88.66
16451;BME280;12243;42.708;23.310;2023-02-17T03:53:39;95887.22;;;1.56;88.20
16451;BME280;12243;42.708;23.310;2023-02-17T03:56:06;95892.53;;;1.51;87.86
16451;BME280;12243;42.708;23.310;2023-02-17T03:58:33;95893.38;;;1.52;88.23
16451;BME280;12243;42.708;23.310;2023-02-17T04:01:00;95890.69;;;1.55;86.96
16451;BME280;12243;42.708;23.310;2023-02-17T04:03:27;95893.06;;;1.61;87.11
16451;BME280;12243;42.708;23.310;2023-02-17T04:05:54;95899.91;;;1.60;86.81
16451;BME280;12243;42.708;23.310;2023-02-17T04:08:22;95896.56;;;1.58;87.25
16451;BME280;12243;42.708;23.310;2023-02-17T04:10:51;95896.03;;;1.49;87.21
16451;BME280;12243;42.708;23.310;2023-02-17T04:13:18;95898.22;;;1.59;87.16
16451;BME280;12243;42.708;23.310;2023-02-17T04:15:45;95887.13;;;1.59;87.15
16451;BME280;12243;42.708;23.310;2023-02-17T04:18:13;95895.66;;;1.59;87.29
16451;BME280;12243;42.708;23.310;2023-02-17T04:20:39;95883.75;;;1.57;87.62
16451;BME280;12243;42.708;23.310;2023-02-17T04:23:07;95906.88;;;1.57;87.26
16451;BME280;12243;42.708;23.310;2023-02-17T04:25:34;95901.88;;;1.54;86.35
16451;BME280;12243;42.708;23.310;2023-02-17T04:28:03;95888.88;;;1.58;86.89
16451;BME280;12243;42.708;23.310;2023-02-17T04:30:30;95896.13;;;1.46;87.12
16451;BME280;12243;42.708;23.310;2023-02-17T04:32:57;95900.50;;;1.43;87.56
16451;BME280;12243;42.708;23.310;2023-02-17T04:35:24;95911.06;;;1.34;87.46
16451;BME280;12243;42.708;23.310;2023-02-17T04:37:51;95908.41;;;1.36;87.81
16451;BME280;12243;42.708;23.310;2023-02-17T04:40:19;95903.16;;;1.40;87.72
16451;BME280;12243;42.708;23.310;2023-02-17T04:42:46;95898.22;;;1.34;87.36
16451;BME280;12243;42.708;23.310;2023-02-17T04:45:14;95895.66;;;1.34;87.90
16451;BME280;12243;42.708;23.310;2023-02-17T04:47:41;95893.00;;;1.37;88.12
16451;BME280;12243;42.708;23.310;2023-02-17T04:50:10;95904.91;;;1.38;88.29
16451;BME280;12243;42.708;23.310;2023-02-17T04:52:37;95900.97;;;1.28;87.97
16451;BME280;12243;42.708;23.310;2023-02-17T04:55:05;95905.38;;;1.25;87.91
16451;BME280;12243;42.708;23.310;2023-02-17T04:57:32;95912.97;;;1.28;88.26
16451;BME280;12243;42.708;23.310;2023-02-17T05:00:01;95901.97;;;1.24;88.76
16451;BME280;12243;42.708;23.310;2023-02-17T05:02:29;95893.00;;;1.37;88.83
16451;BME280;12243;42.708;23.310;2023-02-17T05:04:56;95896.31;;;1.39;88.77
16451;BME280;12243;42.708;23.310;2023-02-17T05:07:23;95909.47;;;1.30;89.26
16451;BME280;12243;42.708;23.310;2023-02-17T05:09:50;95926.44;;;1.34;89.52
16451;BME280;12243;42.708;23.310;2023-02-17T05:12:18;95925.81;;;1.54;88.68
16451;BME280;12243;42.708;23.310;2023-02-17T05:14:45;95923.78;;;1.37;88.30
16451;BME280;12243;42.708;23.310;2023-02-17T05:17:12;95932.66;;;1.27;89.39
16451;BME280;12243;42.708;23.310;2023-02-17T05:19:40;95927.44;;;1.30;89.67
16451;BME280;12243;42.708;23.310;2023-02-17T05:22:07;95920.75;;;1.51;89.00
16451;BME280;12243;42.708;23.310;2023-02-17T05:24:34;95935.53;;;1.45;88.75
16451;BME280;12243;42.708;23.310;2023-02-17T05:27:01;95934.00;;;1.39;89.47
16451;BME280;12243;42.708;23.310;2023-02-17T05:29:28;95940.66;;;1.45;89.62
16451;BME280;12243;42.708;23.310;2023-02-17T05:31:55;95943.50;;;1.62;88.62
16451;BME280;12243;42.708;23.310;2023-02-17T05:34:22;95942.13;;;1.52;88.77
16451;BME280;12243;42.708;23.310;2023-02-17T05:36:50;95943.78;;;1.54;89.50
16451;BME280;12243;42.708;23.310;2023-02-17T05:39:17;95951.47;;;1.79;88.18
16451;BME280;12243;42.708;23.310;2023-02-17T05:41:44;95938.38;;;1.87;87.38
16451;BME280;12243;42.708;23.310;2023-02-17T05:44:11;95944.25;;;1.90;86.82
16451;BME280;12243;42.708;23.310;2023-02-17T05:46:38;95952.84;;;1.89;87.16
16451;BME280;12243;42.708;23.310;2023-02-17T05:49:04;95948.47;;;1.91;87.33
16451;BME280;12243;42.708;23.310;2023-02-17T05:51:31;95949.91;;;2.00;86.90
16451;BME280;12243;42.708;23.310;2023-02-17T05:54:00;95953.31;;;2.01;87.08
16451;BME280;12243;42.708;23.310;2023-02-17T05:56:27;95954.75;;;2.08;87.25
16451;BME280;12243;42.708;23.310;2023-02-17T05:58:54;95963.75;;;2.20;86.64
16451;BME280;12243;42.708;23.310;2023-02-17T06:01:21;95957.59;;;2.25;86.42
16451;BME280;12243;42.708;23.310;2023-02-17T06:03:48;95960.59;;;2.36;85.66
16451;BME280;12243;42.708;23.310;2023-02-17T06:06:15;95959.25;;;2.50;84.61
16451;BME280;12243;42.708;23.310;2023-02-17T06:08:42;95962.00;;;2.45;85.26
16451;BME280;12243;42.708;23.310;2023-02-17T06:11:10;95959.25;;;2.50;85.66
16451;BME280;12243;42.708;23.310;2023-02-17T06:13:37;95973.16;;;2.68;84.34
16451;BME280;12243;42.708;23.310;2023-02-17T06:16:04;95960.38;;;2.66;84.25
16451;BME280;12243;42.708;23.310;2023-02-17T06:18:31;95968.63;;;2.74;84.67
16451;BME280;12243;42.708;23.310;2023-02-17T06:20:58;95970.09;;;2.81;84.86
16451;BME280;12243;42.708;23.310;2023-02-17T06:23:26;95966.16;;;2.95;84.75
16451;BME280;12243;42.708;23.310;2023-02-17T06:25:54;95961.38;;;3.07;84.26
16451;BME280;12243;42.708;23.310;2023-02-17T06:28:22;95975.50;;;3.19;83.75
16451;BME280;12243;42.708;23.310;2023-02-17T06:30:49;95968.91;;;3.34;82.49
16451;BME280;12243;42.708;23.310;2023-02-17T06:33:16;95976.19;;;3.45;82.74
16451;BME280;12243;42.708;23.310;2023-02-17T06:35:47;95979.66;;;3.66;81.51
16451;BME280;12243;42.708;23.310;2023-02-17T06:38:14;95976.78;;;3.73;81.21
16451;BME280;12243;42.708;23.310;2023-02-17T06:40:41;95974.53;;;4.06;78.14
16451;BME280;12243;42.708;23.310;2023-02-17T06:43:08;95980.38;;;4.10;78.15
16451;BME280;12243;42.708;23.310;2023-02-17T06:45:36;95993.78;;;4.18;77.65
16451;BME280;12243;42.708;23.310;2023-02-17T06:48:03;95984.47;;;4.35;76.97
16451;BME280;12243;42.708;23.310;2023-02-17T06:50:30;95988.88;;;4.33;75.49
16451;BME280;12243;42.708;23.310;2023-02-17T06:52:57;95985.03;;;4.22;76.30
16451;BME280;12243;42.708;23.310;2023-02-17T06:55:24;95990.44;;;4.16;76.68
16451;BME280;12243;42.708;23.310;2023-02-17T06:57:50;95981.16;;;4.33;76.77
16451;BME280;12243;42.708;23.310;2023-02-17T07:00:19;95980.47;;;4.48;75.69
16451;BME280;12243;42.708;23.310;2023-02-17T07:02:47;95994.16;;;4.50;75.30
16451;BME280;12243;42.708;23.310;2023-02-17T07:05:14;95981.75;;;4.58;74.29
16451;BME280;12243;42.708;23.310;2023-02-17T07:07:41;95986.63;;;4.64;74.26
16451;BME280;12243;42.708;23.310;2023-02-17T07:10:08;95982.31;;;4.65;74.92
16451;BME280;12243;42.708;23.310;2023-02-17T07:12:35;95985.25;;;4.76;74.27
16451;BME280;12243;42.708;23.310;2023-02-17T07:15:03;95986.56;;;5.04;73.24
16451;BME280;12243;42.708;23.310;2023-02-17T07:17:30;95992.16;;;5.13;72.42
16451;BME280;12243;42.708;23.310;2023-02-17T07:19:58;95999.25;;;5.27;71.76
16451;BME280;12243;42.708;23.310;2023-02-17T07:22:25;95992.44;;;5.43;71.18
16451;BME280;12243;42.708;23.310;2023-02-17T07:24:52;95996.75;;;5.62;74.13
16451;BME280;12243;42.708;23.310;2023-02-17T07:27:19;95998.50;;;5.79;70.76
16451;BME280;12243;42.708;23.310;2023-02-17T07:29:46;95995.94;;;5.96;69.60
16451;BME280;12243;42.708;23.310;2023-02-17T07:32:13;95993.84;;;6.04;68.92
16451;BME280;12243;42.708;23.310;2023-02-17T07:34:40;95991.09;;;6.25;68.66
16451;BME280;12243;42.708;23.310;2023-02-17T07:37:08;96001.41;;;6.42;67.38
16451;BME280;12243;42.708;23.310;2023-02-17T07:39:35;96004.88;;;6.58;66.96
16451;BME280;12243;42.708;23.310;2023-02-17T07:42:02;96001.91;;;6.66;66.81
16451;BME280;12243;42.708;23.310;2023-02-17T07:44:32;96005.44;;;6.81;66.66
16451;BME280;12243;42.708;23.310;2023-02-17T07:46:59;95997.59;;;6.98;66.40
16451;BME280;12243;42.708;23.310;2023-02-17T07:49:25;95996.59;;;7.16;64.69
16451;BME280;12243;42.708;23.310;2023-02-17T07:51:52;95994.09;;;7.31;64.19
16451;BME280;12243;42.708;23.310;2023-02-17T07:54:21;96005.31;;;7.47;63.83
16451;BME280;12243;42.708;23.310;2023-02-17T07:56:48;95991.81;;;7.56;63.71
16451;BME280;12243;42.708;23.310;2023-02-17T07:59:15;95993.22;;;7.78;62.27
16451;BME280;12243;42.708;23.310;2023-02-17T08:01:42;95992.50;;;7.90;62.28
16451;BME280;12243;42.708;23.310;2023-02-17T08:04:09;95986.81;;;7.99;62.06
16451;BME280;12243;42.708;23.310;2023-02-17T08:06:37;95993.41;;;8.19;61.12
16451;BME280;12243;42.708;23.310;2023-02-17T08:09:05;95995.75;;;8.24;60.88
16451;BME280;12243;42.708;23.310;2023-02-17T08:11:51;95996.06;;;8.33;60.52
16451;BME280;12243;42.708;23.310;2023-02-17T08:14:35;95992.69;;;8.47;60.22
16451;BME280;12243;42.708;23.310;2023-02-17T08:17:03;95989.50;;;8.71;59.97
16451;BME280;12243;42.708;23.310;2023-02-17T08:19:30;95993.97;;;8.83;59.02
16451;BME280;12243;42.708;23.310;2023-02-17T08:21:57;95987.66;;;9.01;58.56
16451;BME280;12243;42.708;23.310;2023-02-17T08:24:24;95987.34;;;9.20;58.64
16451;BME280;12243;42.708;23.310;2023-02-17T08:26:53;95984.97;;;9.44;57.83
16451;BME280;12243;42.708;23.310;2023-02-17T08:29:20;95990.28;;;9.70;56.37
16451;BME280;12243;42.708;23.310;2023-02-17T08:31:50;95975.59;;;9.69;56.97
16451;BME280;12243;42.708;23.310;2023-02-17T08:34:17;95977.00;;;9.87;57.57
16451;BME280;12243;42.708;23.310;2023-02-17T08:36:44;95975.03;;;10.31;54.06
16451;BME280;12243;42.708;23.310;2023-02-17T08:39:14;95971.69;;;10.41;53.85
16451;BME280;12243;42.708;23.310;2023-02-17T08:41:41;95974.31;;;10.67;54.38
16451;BME280;12243;42.708;23.310;2023-02-17T08:44:12;95971.28;;;10.99;51.99
16451;BME280;12243;42.708;23.310;2023-02-17T08:46:39;95964.53;;;11.20;47.02
16451;BME280;12243;42.708;23.310;2023-02-17T08:49:07;95965.97;;;11.37;45.78
16451;BME280;12243;42.708;23.310;2023-02-17T08:51:34;95954.81;;;11.59;44.93
16451;BME280;12243;42.708;23.310;2023-02-17T08:54:03;95962.47;;;11.73;43.72
16451;BME280;12243;42.708;23.310;2023-02-17T08:56:31;95966.41;;;11.79;44.26
16451;BME280;12243;42.708;23.310;2023-02-17T08:58:58;95967.78;;;11.96;44.49
16451;BME280;12243;42.708;23.310;2023-02-17T09:01:26;95967.38;;;12.13;43.83
16451;BME280;12243;42.708;23.310;2023-02-17T09:03:54;95963.88;;;12.25;43.17
16451;BME280;12243;42.708;23.310;2023-02-17T09:06:21;95965.66;;;12.36;41.76
16451;BME280;12243;42.708;23.310;2023-02-17T09:08:49;95966.63;;;12.46;42.19
16451;BME280;12243;42.708;23.310;2023-02-17T09:11:16;95959.63;;;12.58;41.60
16451;BME280;12243;42.708;23.310;2023-02-17T09:13:45;95962.50;;;12.66;41.63
16451;BME280;12243;42.708;23.310;2023-02-17T09:16:13;95956.09;;;12.81;40.20
16451;BME280;12243;42.708;23.310;2023-02-17T09:18:41;95948.25;;;12.93;40.11
16451;BME280;12243;42.708;23.310;2023-02-17T09:21:11;95963.56;;;13.20;39.23
16451;BME280;12243;42.708;23.310;2023-02-17T09:23:38;95957.06;;;13.25;38.57
16451;BME280;12243;42.708;23.310;2023-02-17T09:26:08;95963.31;;;13.23;38.98
16451;BME280;12243;42.708;23.310;2023-02-17T09:28:35;95960.50;;;13.26;37.75
16451;BME280;12243;42.708;23.310;2023-02-17T09:31:08;95968.66;;;13.21;37.69
16451;BME280;12243;42.708;23.310;2023-02-17T09:33:35;95965.47;;;13.06;37.71
16451;BME280;12243;42.708;23.310;2023-02-17T09:36:05;95966.06;;;13.10;38.12
16451;BME280;12243;42.708;23.310;2023-02-17T09:38:32;95957.53;;;13.08;38.10
16451;BME280;12243;42.708;23.310;2023-02-17T09:41:04;95950.16;;;13.24;37.68
16451;BME280;12243;42.708;23.310;2023-02-17T09:43:33;95958.09;;;13.34;37.57
16451;BME280;12243;42.708;23.310;2023-02-17T09:46:06;95953.81;;;13.44;37.39
16451;BME280;12243;42.708;23.310;2023-02-17T09:48:37;95955.84;;;13.41;36.70
16451;BME280;12243;42.708;23.310;2023-02-17T09:51:11;95946.31;;;13.40;36.99
16451;BME280;12243;42.708;23.310;2023-02-17T09:53:42;95949.19;;;13.37;37.05
16451;BME280;12243;42.708;23.310;2023-02-17T09:56:15;95955.06;;;13.61;36.99
16451;BME280;12243;42.708;23.310;2023-02-17T09:58:46;95959.69;;;13.69;37.28
16451;BME280;12243;42.708;23.310;2023-02-17T10:01:18;95948.19;;;13.60;37.79
16451;BME280;12243;42.708;23.310;2023-02-17T10:03:49;95945.84;;;13.78;37.51
16451;BME280;12243;42.708;23.310;2023-02-17T10:06:25;95946.50;;;13.59;37.74
16451;BME280;12243;42.708;23.310;2023-02-17T10:08:59;95935.41;;;13.67;38.23
16451;BME280;12243;42.708;23.310;2023-02-17T10:11:31;95930.47;;;13.85;37.79
16451;BME280;12243;42.708;23.310;2023-02-17T10:14:03;95933.72;;;13.98;36.69
16451;BME280;12243;42.708;23.310;2023-02-17T10:16:35;95929.47;;;13.97;37.29
16451;BME280;12243;42.708;23.310;2023-02-17T10:19:09;95913.41;;;13.90;37.12
16451;BME280;12243;42.708;23.310;2023-02-17T10:21:44;95918.84;;;13.77;37.06
16451;BME280;12243;42.708;23.310;2023-02-17T10:24:12;95921.66;;;13.86;37.04
16451;BME280;12243;42.708;23.310;2023-02-17T10:26:50;95912.00;;;13.86;36.85
16451;BME280;12243;42.708;23.310;2023-02-17T10:29:31;95904.00;;;13.99;35.97
16451;BME280;12243;42.708;23.310;2023-02-17T10:32:10;95909.41;;;14.07;35.99
16451;BME280;12243;42.708;23.310;2023-02-17T10:34:44;95904.63;;;14.12;34.85
16451;BME280;12243;42.708;23.310;2023-02-17T10:37:20;95903.41;;;14.16;34.92
16451;BME280;12243;42.708;23.310;2023-02-17T10:39:51;95894.09;;;14.23;34.92
16451;BME280;12243;42.708;23.310;2023-02-17T10:42:21;95892.41;;;14.22;34.58
16451;BME280;12243;42.708;23.310;2023-02-17T10:44:52;95893.44;;;14.10;34.09
16451;BME280;12243;42.708;23.310;2023-02-17T10:47:21;95886.91;;;14.04;34.35
16451;BME280;12243;42.708;23.310;2023-02-17T10:49:50;95876.97;;;14.19;33.86
16451;BME280;12243;42.708;23.310;2023-02-17T10:52:20;95885.19;;;14.15;33.76
16451;BME280;12243;42.708;23.310;2023-02-17T10:54:52;95888.34;;;14.29;33.61
16451;BME280;12243;42.708;23.310;2023-02-17T10:57:21;95871.97;;;14.47;33.28
16451;BME280;12243;42.708;23.310;2023-02-17T10:59:49;95877.72;;;14.52;33.25
16451;BME280;12243;42.708;23.310;2023-02-17T11:02:18;95876.94;;;14.61;32.58
16451;BME280;12243;42.708;23.310;2023-02-17T11:04:48;95868.63;;;14.56;32.74
16451;BME280;12243;42.708;23.310;2023-02-17T11:07:17;95868.19;;;14.51;32.72
16451;BME280;12243;42.708;23.310;2023-02-17T11:09:47;95873.78;;;14.46;32.91
16451;BME280;12243;42.708;23.310;2023-02-17T11:12:19;95874.13;;;14.11;32.74
16451;BME280;12243;42.708;23.310;2023-02-17T11:14:49;95874.53;;;14.06;32.48
16451;BME280;12243;42.708;23.310;2023-02-17T11:17:21;95869.28;;;14.06;31.83
16451;BME280;12243;42.708;23.310;2023-02-17T11:19:55;95872.91;;;13.94;32.47
16451;BME280;12243;42.708;23.310;2023-02-17T11:22:30;95860.28;;;13.99;32.33
16451;BME280;12243;42.708;23.310;2023-02-17T11:25:00;95867.31;;;14.20;32.44
16451;BME280;12243;42.708;23.310;2023-02-17T11:27:28;95864.22;;;14.15;32.67
16451;BME280;12243;42.708;23.310;2023-02-17T11:30:05;95863.53;;;14.34;32.19
16451;BME280;12243;42.708;23.310;2023-02-17T11:32:32;95857.06;;;14.38;32.45
16451;BME280;12243;42.708;23.310;2023-02-17T11:34:59;95854.44;;;14.38;32.94
16451;BME280;12243;42.708;23.310;2023-02-17T11:37:29;95853.28;;;14.30;32.93
16451;BME280;12243;42.708;23.310;2023-02-17T11:39:56;95850.53;;;14.32;33.11
16451;BME280;12243;42.708;23.310;2023-02-17T11:42:27;95847.13;;;14.11;33.60
16451;BME280;12243;42.708;23.310;2023-02-17T11:44:56;95846.59;;;14.17;34.00
16451;BME280;12243;42.708;23.310;2023-02-17T11:47:32;95850.31;;;14.45;33.80
16451;BME280;12243;42.708;23.310;2023-02-17T11:50:20;95844.81;;;14.48;34.00
16451;BME280;12243;42.708;23.310;2023-02-17T11:53:06;95837.22;;;14.75;33.61
16451;BME280;12243;42.708;23.310;2023-02-17T11:55:47;95839.16;;;14.73;32.71
16451;BME280;12243;42.708;23.310;2023-02-17T11:58:26;95838.13;;;14.55;33.01
16451;BME280;12243;42.708;23.310;2023-02-17T12:01:03;95832.78;;;14.66;33.07
16451;BME280;12243;42.708;23.310;2023-02-17T12:03:51;95820.69;;;14.85;33.05
16451;BME280;12243;42.708;23.310;2023-02-17T12:06:21;95822.66;;;15.02;33.11
16451;BME280;12243;42.708;23.310;2023-02-17T12:09:01;95832.16;;;14.93;32.57
16451;BME280;12243;42.708;23.310;2023-02-17T12:11:33;95824.28;;;14.84;32.38
16451;BME280;12243;42.708;23.310;2023-02-17T12:14:14;95820.91;;;14.62;32.81
16451;BME280;12243;42.708;23.310;2023-02-17T12:16:49;95803.06;;;14.56;33.01
16451;BME280;12243;42.708;23.310;2023-02-17T12:19:32;95816.91;;;14.58;33.42
16451;BME280;12243;42.708;23.310;2023-02-17T12:22:11;95800.53;;;14.75;32.90
16451;BME280;12243;42.708;23.310;2023-02-17T12:24:49;95806.28;;;14.69;33.16
16451;BME280;12243;42.708;23.310;2023-02-17T12:27:27;95808.69;;;14.82;33.06
16451;BME280;12243;42.708;23.310;2023-02-17T12:30:13;95793.34;;;14.77;32.85
16451;BME280;12243;42.708;23.310;2023-02-17T12:33:10;95788.41;;;14.94;32.50
16451;BME280;12243;42.708;23.310;2023-02-17T12:35:45;95793.66;;;14.94;31.95
16451;BME280;12243;42.708;23.310;2023-02-17T12:38:24;95793.50;;;14.95;32.43
16451;BME280;12243;42.708;23.310;2023-02-17T12:40:55;95771.28;;;14.90;31.92
16451;BME280;12243;42.708;23.310;2023-02-17T12:43:27;95784.25;;;14.91;32.09
16451;BME280;12243;42.708;23.310;2023-02-17T12:45:59;95780.13;;;14.89;32.48
16451;BME280;12243;42.708;23.310;2023-02-17T12:48:32;95774.59;;;15.01;32.33
16451;BME280;12243;42.708;23.310;2023-02-17T12:51:05;95769.91;;;15.05;32.50
16451;BME280;12243;42.708;23.310;2023-02-17T12:53:41;95766.34;;;15.25;32.48
16451;BME280;12243;42.708;23.310;2023-02-17T12:59:18;95761.34;;;15.32;32.24
16451;BME280;12243;42.708;23.310;2023-02-17T13:02:01;95758.03;;;15.40;32.04
16451;BME280;12243;42.708;23.310;2023-02-17T13:04:29;95760.09;;;15.46;31.99
16451;BME280;12243;42.708;23.310;2023-02-17T13:07:14;95756.38;;;15.39;32.29
16451;BME280;12243;42.708;23.310;2023-02-17T13:09:45;95758.59;;;15.24;32.67
16451;BME280;12243;42.708;23.310;2023-02-17T13:12:34;95751.69;;;15.33;32.39
16451;BME280;12243;42.708;23.310;2023-02-17T13:15:05;95764.00;;;15.42;31.61
16451;BME280;12243;42.708;23.310;2023-02-17T13:17:37;95761.63;;;15.39;31.74
16451;BME280;12243;42.708;23.310;2023-02-17T13:22:48;95763.00;;;15.43;32.13
16451;BME280;12243;42.708;23.310;2023-02-17T13:25:27;95754.72;;;15.47;31.86